Armadores I — SY8463 — position and weather

sailwx.info

Track history (hours):
 
Tides and Currents Weather Stations Pressure Air Temp Water Temp Dewpoint Dewpoint Depression Visibility Wind Speed Wind Dir Waves Ship Positions

Armadores I

Last reported at 2014-Sep-17 18:33 UTC. Time now 2014-Sep-17 19:32 UTC.
Position N 37°57' E 023°37'.

Length 32 m.

Type: Tug. MMSI: 240694000.

Date/timePositionNaut miles runAvg speedWind from/ knotsBaromVisibWave heightAir tempDewpointWater temp
2014-Sep-17 18:33N 37°57' E 023°37'0 0.0
2014-Sep-17 17:33N 37°57' E 023°37'0 0.0
2014-Sep-17 16:33N 37°57' E 023°37'2 1.7
2014-Sep-17 15:33N 37°57' E 023°38'0 0.4
2014-Sep-17 14:33N 37°56' E 023°38'0 0.0
2014-Sep-17 13:33N 37°56' E 023°38'0 0.0
2014-Sep-17 12:33N 37°56' E 023°38'1 0.7
2014-Sep-17 11:33N 37°56' E 023°37'1 0.2
2014-Sep-17 06:10N 37°57' E 023°37'1 0.9
2014-Sep-17 05:33N 37°57' E 023°36'0 0.3
2014-Sep-17 04:33N 37°57' E 023°36'0 0.5
2014-Sep-17 03:33N 37°57' E 023°36'0 0.5
2014-Sep-17 02:33N 37°57' E 023°36'1 1.4
2014-Sep-17 01:33N 37°56' E 023°37'0 0.0
2014-Sep-17 00:33N 37°56' E 023°37'0 0.0
2014-Sep-16 23:33N 37°56' E 023°37'0 0.4
2014-Sep-16 22:33N 37°56' E 023°37'8 7.3
2014-Sep-16 21:32N 38°02' E 023°30'0 0.4
2014-Sep-16 20:33N 38°02' E 023°31'0 0.0
2014-Sep-16 19:29N 38°02' E 023°31'0 0.0
2014-Sep-16 18:30N 38°02' E 023°31'4 4.1
2014-Sep-16 17:32N 38°00' E 023°27'4 3.6
2014-Sep-16 16:33N 37°58' E 023°23'2 1.7
2014-Sep-16 15:32N 37°57' E 023°23'6 6.6
2014-Sep-16 14:33N 37°53' E 023°29'7 7.2
2014-Sep-16 13:33N 37°57' E 023°36'0 0.2
2014-Sep-16 12:33N 37°57' E 023°37'0 0.0
2014-Sep-16 11:33N 37°57' E 023°37'0 0.0
2014-Sep-16 10:34N 37°57' E 023°37'0 0.0
2014-Sep-16 03:34N 37°57' E 023°37'0 0.0
2014-Sep-16 02:34N 37°57' E 023°37'0 0.0
2014-Sep-16 01:34N 37°57' E 023°37'0 0.0
2014-Sep-16 00:33N 37°57' E 023°37'1 1.2
2014-Sep-15 23:33N 37°57' E 023°35'1 0.7
2014-Sep-15 22:33N 37°57' E 023°36'1 0.9
2014-Sep-15 21:33N 37°56' E 023°36'1 1.1
2014-Sep-15 20:33N 37°57' E 023°35'0 0.2
2014-Sep-15 19:33N 37°57' E 023°35'1 0.9
2014-Sep-15 18:33N 37°57' E 023°36'0 0.0
2014-Sep-15 17:33N 37°57' E 023°36'0 0.0
2014-Sep-15 16:33N 37°57' E 023°36'1 1.4
2014-Sep-15 15:33N 37°56' E 023°37'1 1.5
2014-Sep-15 14:34N 37°57' E 023°37'0 0.0
2014-Sep-15 13:33N 37°57' E 023°37'1 0.8
2014-Sep-15 12:34N 37°57' E 023°36'0 0.3
2014-Sep-15 11:34N 37°57' E 023°36'1 0.1
2014-Sep-15 06:33N 37°57' E 023°35'0 0.2
2014-Sep-15 05:33N 37°57' E 023°35'1 1.0
2014-Sep-15 04:34N 37°57' E 023°37'0 0.0
2014-Sep-15 03:33N 37°57' E 023°37'0 0.0
2014-Sep-15 02:33N 37°57' E 023°37'1 1.4
2014-Sep-15 01:33N 37°56' E 023°37'1 1.4
2014-Sep-15 00:34N 37°57' E 023°36'0 0.0
2014-Sep-14 23:34N 37°57' E 023°36'1 0.6
2014-Sep-14 22:33N 37°57' E 023°36'0 0.3
2014-Sep-14 21:33N 37°57' E 023°37'0 0.0
2014-Sep-14 20:33N 37°57' E 023°37'1 1.2
2014-Sep-14 19:33N 37°57' E 023°35'1 1.2
2014-Sep-14 18:33N 37°57' E 023°37'0 0.0
2014-Sep-14 17:33N 37°57' E 023°37'0 0.0
2014-Sep-14 16:33N 37°57' E 023°37'0 0.0
2014-Sep-14 15:34N 37°57' E 023°37'0 0.0
2014-Sep-14 14:33N 37°57' E 023°37'0 0.0
2014-Sep-14 13:33N 37°57' E 023°37'1 0.7
2014-Sep-14 12:33N 37°57' E 023°36'0 0.2
2014-Sep-14 11:34N 37°57' E 023°36'1 0.6
2014-Sep-14 10:33N 37°57' E 023°37'0 0.0
2014-Sep-14 09:33N 37°57' E 023°37'0 0.0
2014-Sep-14 08:33N 37°57' E 023°37'0 0.0
2014-Sep-14 07:33N 37°57' E 023°37'0 0.0
2014-Sep-14 06:33N 37°57' E 023°37'0 0.4
2014-Sep-14 05:33N 37°57' E 023°36'2 1.5
2014-Sep-14 04:31N 37°56' E 023°35'1 0.9
2014-Sep-14 03:32N 37°57' E 023°35'1 0.1
2014-Sep-13 20:23N 37°57' E 023°36'1 0.7
2014-Sep-13 19:29N 37°57' E 023°35'0 0.2
2014-Sep-13 18:33N 37°57' E 023°35'1 0.1
2014-Sep-13 07:09N 37°57' E 023°37'0 0.0
2014-Sep-13 06:33N 37°57' E 023°37'1 1.1
2014-Sep-13 05:33N 37°57' E 023°35'1 1.2
2014-Sep-13 04:33N 37°56' E 023°36'1 1.2
2014-Sep-13 03:33N 37°57' E 023°37'0 0.0
2014-Sep-13 02:33N 37°57' E 023°37'0 0.0
2014-Sep-12 23:33N 37°57' E 023°37'0 0.0
2014-Sep-12 22:33N 37°57' E 023°37'0 0.0
2014-Sep-12 21:34N 37°57' E 023°37'0 0.0
2014-Sep-12 20:33N 37°57' E 023°37'0 0.0
2014-Sep-12 19:33N 37°57' E 023°37'0 0.0
2014-Sep-12 18:34N 37°57' E 023°37'0 0.0
2014-Sep-12 17:34N 37°57' E 023°37'0 0.0
2014-Sep-12 16:27N 37°57' E 023°37'0 0.0
2014-Sep-12 15:34N 37°57' E 023°37'0 0.0
2014-Sep-12 14:34N 37°57' E 023°37'0 0.0
2014-Sep-12 13:34N 37°57' E 023°37'0 0.3
2014-Sep-12 12:33N 37°57' E 023°36'7 5.6
2014-Sep-12 11:23N 38°02' E 023°30'2 2.1
2014-Sep-12 10:30N 38°01' E 023°32'5 4.8
2014-Sep-12 09:33N 37°57' E 023°36'1 0.6
2014-Sep-12 08:33N 37°57' E 023°36'0 0.0
2014-Sep-12 07:33N 37°57' E 023°36'0 0.0
2014-Sep-12 06:33N 37°57' E 023°36'0 0.0
2014-Sep-12 05:33N 37°57' E 023°36'1 0.9
2014-Sep-12 04:33N 37°57' E 023°35'0 0.2
2014-Sep-12 03:34N 37°57' E 023°35'1 0.9
2014-Sep-12 02:34N 37°57' E 023°36'0 0.0
2014-Sep-12 01:33N 37°57' E 023°36'0 0.0
2014-Sep-12 00:33N 37°57' E 023°36'0 0.0
2014-Sep-11 23:33N 37°57' E 023°36'0 0.0
2014-Sep-11 22:33N 37°57' E 023°36'0 0.0
2014-Sep-11 21:33N 37°57' E 023°36'0 0.0
2014-Sep-11 20:33N 37°57' E 023°36'0 0.5
2014-Sep-11 19:33N 37°57' E 023°36'0 0.5
2014-Sep-11 18:34N 37°57' E 023°36'0 0.0
2014-Sep-11 17:33N 37°57' E 023°36'0 0.0
2014-Sep-11 16:19N 37°57' E 023°36'0 0.0
2014-Sep-11 15:33N 37°57' E 023°36'0 0.0
2014-Sep-11 14:33N 37°57' E 023°36'2 1.8
2014-Sep-11 13:33N 37°57' E 023°38'1 1.0
2014-Sep-11 12:33N 37°56' E 023°37'1 1.5
2014-Sep-11 11:33N 37°57' E 023°37'0 0.0
2014-Sep-11 10:33N 37°57' E 023°37'5 4.8
2014-Sep-11 09:32N 38°00' E 023°32'1 1.0
2014-Sep-11 08:33N 38°01' E 023°31'1 1.1
2014-Sep-11 07:34N 38°00' E 023°32'3 2.9
2014-Sep-11 06:33N 37°58' E 023°33'3 2.6
2014-Sep-11 05:33N 37°57' E 023°36'1 0.7
2014-Sep-11 04:33N 37°57' E 023°36'1 0.8
2014-Sep-11 03:33N 37°57' E 023°35'1 0.1
2014-Sep-10 10:33N 37°57' E 023°37'0 0.0
2014-Sep-10 06:17N 37°57' E 023°37'0 0.0
2014-Sep-10 05:33N 37°57' E 023°37'1 0.6
2014-Sep-10 04:34N 37°57' E 023°36'0 0.1
2014-Sep-10 03:34N 37°57' E 023°36'1 0.7
2014-Sep-10 02:34N 37°57' E 023°37'0 0.0
2014-Sep-10 01:34N 37°57' E 023°37'0 0.0
2014-Sep-10 00:34N 37°57' E 023°37'0 0.0
2014-Sep-09 23:34N 37°57' E 023°37'0 0.0
2014-Sep-09 22:33N 37°57' E 023°37'0 0.0
2014-Sep-09 21:34N 37°57' E 023°37'0 0.0
2014-Sep-09 20:34N 37°57' E 023°37'0 0.0
2014-Sep-09 19:34N 37°57' E 023°37'0 0.0
2014-Sep-09 18:34N 37°57' E 023°37'1 1.2
2014-Sep-09 17:34N 37°57' E 023°35'1 0.8
2014-Sep-09 16:33N 37°56' E 023°35'1 0.9
2014-Sep-09 15:34N 37°57' E 023°36'1 0.7
2014-Sep-09 14:33N 37°57' E 023°35'1 1.1
2014-Sep-09 13:33N 37°56' E 023°36'1 1.4
2014-Sep-09 12:33N 37°57' E 023°37'0 0.0
2014-Sep-09 11:33N 37°57' E 023°37'0 0.0
2014-Sep-09 07:33N 37°57' E 023°37'0 0.0
2014-Sep-09 06:33N 37°57' E 023°37'0 0.0
2014-Sep-09 05:33N 37°57' E 023°37'1 1.2
2014-Sep-09 04:33N 37°57' E 023°35'1 1.2
2014-Sep-09 03:33N 37°57' E 023°37'0 0.0
2014-Sep-09 02:33N 37°57' E 023°37'0 0.0
2014-Sep-09 01:33N 37°57' E 023°37'0 0.0
2014-Sep-09 00:33N 37°57' E 023°37'1 1.0
2014-Sep-08 23:34N 37°57' E 023°35'1 1.0
2014-Sep-08 22:34N 37°57' E 023°37'0 0.0
2014-Sep-08 21:34N 37°57' E 023°37'0 0.0
2014-Sep-08 20:33N 37°57' E 023°37'0 0.0
2014-Sep-08 19:34N 37°57' E 023°37'0 0.4
2014-Sep-08 18:33N 37°57' E 023°36'0 0.5
2014-Sep-08 17:33N 37°57' E 023°37'0 0.0
2014-Sep-08 16:33N 37°57' E 023°37'0 0.0
2014-Sep-08 15:33N 37°57' E 023°37'1 1.3
2014-Sep-08 14:33N 37°56' E 023°37'1 1.3
2014-Sep-08 13:33N 37°57' E 023°37'0 0.2
2014-Sep-08 12:33N 37°57' E 023°36'1 1.3
2014-Sep-08 11:33N 37°56' E 023°36'1 0.2
2014-Sep-08 05:33N 37°57' E 023°37'1 0.7
2014-Sep-08 04:33N 37°57' E 023°36'1 0.6
2014-Sep-08 03:27N 37°57' E 023°37'0 0.0
2014-Sep-08 02:33N 37°57' E 023°37'0 0.0
2014-Sep-08 01:26N 37°57' E 023°37'0 0.0
2014-Sep-08 00:26N 37°57' E 023°37'0 0.0
2014-Sep-07 23:18N 37°57' E 023°37'0 0.0
2014-Sep-07 22:29N 37°57' E 023°37'2 1.7
2014-Sep-07 21:33N 37°56' E 023°38'1 0.9
2014-Sep-07 20:33N 37°56' E 023°37'1 1.4
2014-Sep-07 19:32N 37°57' E 023°35'  
Track history (hours):
 
Tides and Currents Weather Stations Pressure Air Temp Water Temp Dewpoint Dewpoint Depression Visibility Wind Speed Wind Dir Waves Ship Positions

Armadores I

Last reported at 2014-Sep-17 18:33 UTC. Time now 2014-Sep-17 19:32 UTC.
Position N 37°57' E 023°37'.

Length 32 m.

Type: Tug. MMSI: 240694000.

Date/timePositionNaut miles runAvg speedWind from/ knotsBaromVisibWave heightAir tempDewpointWater temp
2014-Sep-17 18:33N 37°57' E 023°37'0 0.0
2014-Sep-17 17:33N 37°57' E 023°37'0 0.0
2014-Sep-17 16:33N 37°57' E 023°37'2 1.7
2014-Sep-17 15:33N 37°57' E 023°38'0 0.4
2014-Sep-17 14:33N 37°56' E 023°38'0 0.0
2014-Sep-17 13:33N 37°56' E 023°38'0 0.0
2014-Sep-17 12:33N 37°56' E 023°38'1 0.7
2014-Sep-17 11:33N 37°56' E 023°37'1 0.2
2014-Sep-17 06:10N 37°57' E 023°37'1 0.9
2014-Sep-17 05:33N 37°57' E 023°36'0 0.3
2014-Sep-17 04:33N 37°57' E 023°36'0 0.5
2014-Sep-17 03:33N 37°57' E 023°36'0 0.5
2014-Sep-17 02:33N 37°57' E 023°36'1 1.4
2014-Sep-17 01:33N 37°56' E 023°37'0 0.0
2014-Sep-17 00:33N 37°56' E 023°37'0 0.0
2014-Sep-16 23:33N 37°56' E 023°37'0 0.4
2014-Sep-16 22:33N 37°56' E 023°37'8 7.3
2014-Sep-16 21:32N 38°02' E 023°30'0 0.4
2014-Sep-16 20:33N 38°02' E 023°31'0 0.0
2014-Sep-16 19:29N 38°02' E 023°31'0 0.0
2014-Sep-16 18:30N 38°02' E 023°31'4 4.1
2014-Sep-16 17:32N 38°00' E 023°27'4 3.6
2014-Sep-16 16:33N 37°58' E 023°23'2 1.7
2014-Sep-16 15:32N 37°57' E 023°23'6 6.6
2014-Sep-16 14:33N 37°53' E 023°29'7 7.2
2014-Sep-16 13:33N 37°57' E 023°36'0 0.2
2014-Sep-16 12:33N 37°57' E 023°37'0 0.0
2014-Sep-16 11:33N 37°57' E 023°37'0 0.0
2014-Sep-16 10:34N 37°57' E 023°37'0 0.0
2014-Sep-16 03:34N 37°57' E 023°37'0 0.0
2014-Sep-16 02:34N 37°57' E 023°37'0 0.0
2014-Sep-16 01:34N 37°57' E 023°37'0 0.0
2014-Sep-16 00:33N 37°57' E 023°37'1 1.2
2014-Sep-15 23:33N 37°57' E 023°35'1 0.7
2014-Sep-15 22:33N 37°57' E 023°36'1 0.9
2014-Sep-15 21:33N 37°56' E 023°36'1 1.1
2014-Sep-15 20:33N 37°57' E 023°35'0 0.2
2014-Sep-15 19:33N 37°57' E 023°35'1 0.9
2014-Sep-15 18:33N 37°57' E 023°36'0 0.0
2014-Sep-15 17:33N 37°57' E 023°36'0 0.0
2014-Sep-15 16:33N 37°57' E 023°36'1 1.4
2014-Sep-15 15:33N 37°56' E 023°37'1 1.5
2014-Sep-15 14:34N 37°57' E 023°37'0 0.0
2014-Sep-15 13:33N 37°57' E 023°37'1 0.8
2014-Sep-15 12:34N 37°57' E 023°36'0 0.3
2014-Sep-15 11:34N 37°57' E 023°36'1 0.1
2014-Sep-15 06:33N 37°57' E 023°35'0 0.2
2014-Sep-15 05:33N 37°57' E 023°35'1 1.0
2014-Sep-15 04:34N 37°57' E 023°37'0 0.0
2014-Sep-15 03:33N 37°57' E 023°37'0 0.0
2014-Sep-15 02:33N 37°57' E 023°37'1 1.4
2014-Sep-15 01:33N 37°56' E 023°37'1 1.4
2014-Sep-15 00:34N 37°57' E 023°36'0 0.0
2014-Sep-14 23:34N 37°57' E 023°36'1 0.6
2014-Sep-14 22:33N 37°57' E 023°36'0 0.3
2014-Sep-14 21:33N 37°57' E 023°37'0 0.0
2014-Sep-14 20:33N 37°57' E 023°37'1 1.2
2014-Sep-14 19:33N 37°57' E 023°35'1 1.2
2014-Sep-14 18:33N 37°57' E 023°37'0 0.0
2014-Sep-14 17:33N 37°57' E 023°37'0 0.0
2014-Sep-14 16:33N 37°57' E 023°37'0 0.0
2014-Sep-14 15:34N 37°57' E 023°37'0 0.0
2014-Sep-14 14:33N 37°57' E 023°37'0 0.0
2014-Sep-14 13:33N 37°57' E 023°37'1 0.7
2014-Sep-14 12:33N 37°57' E 023°36'0 0.2
2014-Sep-14 11:34N 37°57' E 023°36'1 0.6
2014-Sep-14 10:33N 37°57' E 023°37'0 0.0
2014-Sep-14 09:33N 37°57' E 023°37'0 0.0
2014-Sep-14 08:33N 37°57' E 023°37'0 0.0
2014-Sep-14 07:33N 37°57' E 023°37'0 0.0
2014-Sep-14 06:33N 37°57' E 023°37'0 0.4
2014-Sep-14 05:33N 37°57' E 023°36'2 1.5
2014-Sep-14 04:31N 37°56' E 023°35'1 0.9
2014-Sep-14 03:32N 37°57' E 023°35'1 0.1
2014-Sep-13 20:23N 37°57' E 023°36'1 0.7
2014-Sep-13 19:29N 37°57' E 023°35'0 0.2
2014-Sep-13 18:33N 37°57' E 023°35'1 0.1
2014-Sep-13 07:09N 37°57' E 023°37'0 0.0
2014-Sep-13 06:33N 37°57' E 023°37'1 1.1
2014-Sep-13 05:33N 37°57' E 023°35'1 1.2
2014-Sep-13 04:33N 37°56' E 023°36'1 1.2
2014-Sep-13 03:33N 37°57' E 023°37'0 0.0
2014-Sep-13 02:33N 37°57' E 023°37'0 0.0
2014-Sep-12 23:33N 37°57' E 023°37'0 0.0
2014-Sep-12 22:33N 37°57' E 023°37'0 0.0
2014-Sep-12 21:34N 37°57' E 023°37'0 0.0
2014-Sep-12 20:33N 37°57' E 023°37'0 0.0
2014-Sep-12 19:33N 37°57' E 023°37'0 0.0
2014-Sep-12 18:34N 37°57' E 023°37'0 0.0
2014-Sep-12 17:34N 37°57' E 023°37'0 0.0
2014-Sep-12 16:27N 37°57' E 023°37'0 0.0
2014-Sep-12 15:34N 37°57' E 023°37'0 0.0
2014-Sep-12 14:34N 37°57' E 023°37'0 0.0
2014-Sep-12 13:34N 37°57' E 023°37'0 0.3
2014-Sep-12 12:33N 37°57' E 023°36'7 5.6
2014-Sep-12 11:23N 38°02' E 023°30'2 2.1
2014-Sep-12 10:30N 38°01' E 023°32'5 4.8
2014-Sep-12 09:33N 37°57' E 023°36'1 0.6
2014-Sep-12 08:33N 37°57' E 023°36'0 0.0
2014-Sep-12 07:33N 37°57' E 023°36'0 0.0
2014-Sep-12 06:33N 37°57' E 023°36'0 0.0
2014-Sep-12 05:33N 37°57' E 023°36'1 0.9
2014-Sep-12 04:33N 37°57' E 023°35'0 0.2
2014-Sep-12 03:34N 37°57' E 023°35'1 0.9
2014-Sep-12 02:34N 37°57' E 023°36'0 0.0
2014-Sep-12 01:33N 37°57' E 023°36'0 0.0
2014-Sep-12 00:33N 37°57' E 023°36'0 0.0
2014-Sep-11 23:33N 37°57' E 023°36'0 0.0
2014-Sep-11 22:33N 37°57' E 023°36'0 0.0
2014-Sep-11 21:33N 37°57' E 023°36'0 0.0
2014-Sep-11 20:33N 37°57' E 023°36'0 0.5
2014-Sep-11 19:33N 37°57' E 023°36'0 0.5
2014-Sep-11 18:34N 37°57' E 023°36'0 0.0
2014-Sep-11 17:33N 37°57' E 023°36'0 0.0
2014-Sep-11 16:19N 37°57' E 023°36'0 0.0
2014-Sep-11 15:33N 37°57' E 023°36'0 0.0
2014-Sep-11 14:33N 37°57' E 023°36'2 1.8
2014-Sep-11 13:33N 37°57' E 023°38'1 1.0
2014-Sep-11 12:33N 37°56' E 023°37'1 1.5
2014-Sep-11 11:33N 37°57' E 023°37'0 0.0
2014-Sep-11 10:33N 37°57' E 023°37'5 4.8
2014-Sep-11 09:32N 38°00' E 023°32'1 1.0
2014-Sep-11 08:33N 38°01' E 023°31'1 1.1
2014-Sep-11 07:34N 38°00' E 023°32'3 2.9
2014-Sep-11 06:33N 37°58' E 023°33'3 2.6
2014-Sep-11 05:33N 37°57' E 023°36'1 0.7
2014-Sep-11 04:33N 37°57' E 023°36'1 0.8
2014-Sep-11 03:33N 37°57' E 023°35'1 0.1
2014-Sep-10 10:33N 37°57' E 023°37'0 0.0
2014-Sep-10 06:17N 37°57' E 023°37'0 0.0
2014-Sep-10 05:33N 37°57' E 023°37'1 0.6
2014-Sep-10 04:34N 37°57' E 023°36'0 0.1
2014-Sep-10 03:34N 37°57' E 023°36'1 0.7
2014-Sep-10 02:34N 37°57' E 023°37'0 0.0
2014-Sep-10 01:34N 37°57' E 023°37'0 0.0
2014-Sep-10 00:34N 37°57' E 023°37'0 0.0
2014-Sep-09 23:34N 37°57' E 023°37'0 0.0
2014-Sep-09 22:33N 37°57' E 023°37'0 0.0
2014-Sep-09 21:34N 37°57' E 023°37'0 0.0
2014-Sep-09 20:34N 37°57' E 023°37'0 0.0
2014-Sep-09 19:34N 37°57' E 023°37'0 0.0
2014-Sep-09 18:34N 37°57' E 023°37'1 1.2
2014-Sep-09 17:34N 37°57' E 023°35'1 0.8
2014-Sep-09 16:33N 37°56' E 023°35'1 0.9
2014-Sep-09 15:34N 37°57' E 023°36'1 0.7
2014-Sep-09 14:33N 37°57' E 023°35'1 1.1
2014-Sep-09 13:33N 37°56' E 023°36'1 1.4
2014-Sep-09 12:33N 37°57' E 023°37'0 0.0
2014-Sep-09 11:33N 37°57' E 023°37'0 0.0
2014-Sep-09 07:33N 37°57' E 023°37'0 0.0
2014-Sep-09 06:33N 37°57' E 023°37'0 0.0
2014-Sep-09 05:33N 37°57' E 023°37'1 1.2
2014-Sep-09 04:33N 37°57' E 023°35'1 1.2
2014-Sep-09 03:33N 37°57' E 023°37'0 0.0
2014-Sep-09 02:33N 37°57' E 023°37'0 0.0
2014-Sep-09 01:33N 37°57' E 023°37'0 0.0
2014-Sep-09 00:33N 37°57' E 023°37'1 1.0
2014-Sep-08 23:34N 37°57' E 023°35'1 1.0
2014-Sep-08 22:34N 37°57' E 023°37'0 0.0
2014-Sep-08 21:34N 37°57' E 023°37'0 0.0
2014-Sep-08 20:33N 37°57' E 023°37'0 0.0
2014-Sep-08 19:34N 37°57' E 023°37'0 0.4
2014-Sep-08 18:33N 37°57' E 023°36'0 0.5
2014-Sep-08 17:33N 37°57' E 023°37'0 0.0
2014-Sep-08 16:33N 37°57' E 023°37'0 0.0
2014-Sep-08 15:33N 37°57' E 023°37'1 1.3
2014-Sep-08 14:33N 37°56' E 023°37'1 1.3
2014-Sep-08 13:33N 37°57' E 023°37'0 0.2
2014-Sep-08 12:33N 37°57' E 023°36'1 1.3
2014-Sep-08 11:33N 37°56' E 023°36'1 0.2
2014-Sep-08 05:33N 37°57' E 023°37'1 0.7
2014-Sep-08 04:33N 37°57' E 023°36'1 0.6
2014-Sep-08 03:27N 37°57' E 023°37'0 0.0
2014-Sep-08 02:33N 37°57' E 023°37'0 0.0
2014-Sep-08 01:26N 37°57' E 023°37'0 0.0
2014-Sep-08 00:26N 37°57' E 023°37'0 0.0
2014-Sep-07 23:18N 37°57' E 023°37'0 0.0
2014-Sep-07 22:29N 37°57' E 023°37'2 1.7
2014-Sep-07 21:33N 37°56' E 023°38'1 0.9
2014-Sep-07 20:33N 37°56' E 023°37'1 1.4
2014-Sep-07 19:32N 37°57' E 023°35'  

Dump ship's entire track history